EDT,Max TemperatureF,Mean TemperatureF,Min TemperatureF,Max Dew PointF,MeanDew PointF,Min DewpointF,Max Humidity, Mean Humidity, Min Humidity, Max Sea Level PressureIn, Mean Sea Level PressureIn, Min Sea Level PressureIn, Max VisibilityMiles, Mean VisibilityMiles, Min VisibilityMiles, Max Wind SpeedMPH, Mean Wind SpeedMPH, Max Gust SpeedMPH,PrecipitationIn, CloudCover, Events, WindDirDegrees
2013-3-1,54,50,45,36,32,30,61,53,44,30.02,29.97,29.92,10,10,10,15,7,20,0.00,0,,290
2013-3-2,51,45,39,36,30,26,79,61,42,30.02,29.98,29.94,10,10,10,23,9,31,0.00,2,,278
2013-3-3,47,42,36,30,26,22,70,54,37,30.12,30.04,29.99,10,10,10,20,10,29,0.00,2,,284
2013-3-4,54,44,34,41,30,14,70,46,22,30.22,30.16,30.12,10,10,10,16,7,20,0.00,0,,224
2013-3-5,74,59,43,58,46,36,83,65,46,30.17,30.02,29.83,10,10,8,22,11,30,0.03,2,Rain,207
2013-3-6,64,53,42,61,32,22,72,51,29,30.14,29.99,29.84,10,10,2,24,13,38,0.01,1,Rain,287
2013-3-7,53,46,38,41,35,29,89,71,52,30.25,30.20,30.14,10,10,9,13,5,16,0.00,0,,18
2013-3-8,58,49,39,45,41,37,96,76,55,30.28,30.23,30.18,10,8,4,17,5,22,0.00,0,,51
2013-3-9,61,50,38,49,42,37,93,69,44,30.32,30.27,30.22,10,9,5,15,7,20,0.00,0,,62
2013-3-10,69,58,46,56,52,44,93,76,59,30.25,30.20,30.16,10,10,10,15,7,18,0.00,1,,59
2013-3-11,70,64,58,59,56,54,90,74,57,30.16,30.04,29.93,10,10,10,14,8,21,0.01,2,,143
2013-3-12,66,62,57,63,57,42,100,76,52,30.02,29.90,29.86,10,7,2,10,8,20,0.05,5,Rain,231
2013-3-13,68,57,46,40,32,25,65,43,20,30.19,30.11,30.03,10,10,10,17,8,26,0.00,0,,301
2013-3-14,56,49,41,38,29,23,76,53,30,30.32,30.25,30.18,10,10,10,16,6,23,0.00,0,,3
2013-3-15,69,55,40,50,39,30,89,58,26,30.28,30.20,30.11,10,10,10,12,6,18,0.00,0,,234
2013-3-16,79,65,50,48,44,41,77,53,28,30.13,30.06,29.97,10,10,10,20,11,26,0.00,0,,246
2013-3-17,72,62,52,58,53,49,96,75,53,30.11,30.06,30.00,10,10,10,14,8,21,0.00,1,,205
2013-3-18,70,65,59,61,58,52,93,78,63,30.06,29.99,29.88,10,9,5,18,6,26,0.31,4,Rain,147
2013-3-19,78,67,56,59,55,45,93,63,33,30.01,29.97,29.84,10,9,2,18,7,24,0.01,4,Rain-Thunderstorm,297
2013-3-20,62,55,47,46,42,36,86,66,46,30.06,29.97,29.87,10,10,10,21,8,30,T,3,,22
2013-3-21,63,54,44,44,28,19,93,56,19,29.96,29.91,29.86,10,10,10,16,7,25,0.00,0,,297
2013-3-22,58,52,46,47,35,25,72,57,41,30.09,30.04,29.96,10,10,10,13,7,17,0.00,4,,53
2013-3-23,66,59,52,64,56,47,100,86,72,30.04,29.91,29.82,10,6,2,25,9,35,1.20,8,Rain-Thunderstorm,68
2013-3-24,84,71,57,70,62,55,100,70,40,29.81,29.62,29.49,10,6,1,26,11,35,0.49,6,Rain-Thunderstorm,190
2013-3-25,61,54,47,57,38,19,93,58,22,30.03,29.79,29.62,10,10,7,23,13,38,0.00,2,,304
2013-3-26,53,46,38,27,24,21,59,46,32,30.26,30.13,30.05,10,10,10,21,10,32,0.00,0,,297
2013-3-27,55,46,36,36,30,25,75,54,32,30.32,30.26,30.22,10,10,10,14,6,20,0.00,0,,294
2013-3-28,58,50,42,43,36,30,80,60,39,30.32,30.27,30.23,10,10,10,16,6,18,0.00,0,,340
2013-3-29,65,54,42,50,43,30,93,61,28,30.34,30.29,30.24,10,10,10,16,6,22,0.00,0,,14
2013-3-30,72,62,52,56,48,36,84,56,28,30.26,30.19,30.12,10,10,10,14,8,22,0.00,0,,189
2013-3-31,79,68,57,58,51,42,84,62,40,30.12,30.05,29.96,10,10,10,18,9,28,T,2,,205